sensor_id;sensor_type;location;lat;lon;timestamp;temperature;humidity
30764;DHT22;17497;51.476;7.770;2024-03-08T00:00:48;2.70;99.90
30764;DHT22;17497;51.476;7.770;2024-03-08T00:03:15;2.70;99.90
30764;DHT22;17497;51.476;7.770;2024-03-08T00:05:41;2.70;99.90
30764;DHT22;17497;51.476;7.770;2024-03-08T00:08:08;2.60;99.90
30764;DHT22;17497;51.476;7.770;2024-03-08T00:10:36;2.60;99.90
30764;DHT22;17497;51.476;7.770;2024-03-08T00:13:05;2.60;99.90
30764;DHT22;17497;51.476;7.770;2024-03-08T00:15:31;2.60;99.90
30764;DHT22;17497;51.476;7.770;2024-03-08T00:17:58;2.60;99.90
30764;DHT22;17497;51.476;7.770;2024-03-08T00:20:25;2.60;99.90
30764;DHT22;17497;51.476;7.770;2024-03-08T00:22:52;2.60;99.90
30764;DHT22;17497;51.476;7.770;2024-03-08T00:25:19;2.60;99.90
30764;DHT22;17497;51.476;7.770;2024-03-08T00:27:45;2.60;99.90
30764;DHT22;17497;51.476;7.770;2024-03-08T00:30:12;2.60;99.90
30764;DHT22;17497;51.476;7.770;2024-03-08T00:32:41;2.60;99.90
30764;DHT22;17497;51.476;7.770;2024-03-08T00:35:08;2.60;99.90
30764;DHT22;17497;51.476;7.770;2024-03-08T00:37:35;2.60;99.90
30764;DHT22;17497;51.476;7.770;2024-03-08T00:40:02;2.60;99.90
30764;DHT22;17497;51.476;7.770;2024-03-08T00:42:28;2.60;99.90
30764;DHT22;17497;51.476;7.770;2024-03-08T00:44:55;2.50;99.90
30764;DHT22;17497;51.476;7.770;2024-03-08T00:47:22;2.40;99.90
30764;DHT22;17497;51.476;7.770;2024-03-08T00:49:48;2.40;99.90
30764;DHT22;17497;51.476;7.770;2024-03-08T00:52:15;2.30;99.90
30764;DHT22;17497;51.476;7.770;2024-03-08T00:54:42;2.30;99.90
30764;DHT22;17497;51.476;7.770;2024-03-08T00:57:10;2.30;99.90
30764;DHT22;17497;51.476;7.770;2024-03-08T00:59:40;2.30;99.90
30764;DHT22;17497;51.476;7.770;2024-03-08T01:02:07;2.20;99.90
30764;DHT22;17497;51.476;7.770;2024-03-08T01:04:35;2.20;99.90
30764;DHT22;17497;51.476;7.770;2024-03-08T01:07:02;2.20;99.90
30764;DHT22;17497;51.476;7.770;2024-03-08T01:09:28;2.30;99.90
30764;DHT22;17497;51.476;7.770;2024-03-08T01:11:55;2.30;99.90
30764;DHT22;17497;51.476;7.770;2024-03-08T01:14:22;2.30;99.90
30764;DHT22;17497;51.476;7.770;2024-03-08T01:16:49;2.20;99.90
30764;DHT22;17497;51.476;7.770;2024-03-08T01:19:16;2.20;99.90
30764;DHT22;17497;51.476;7.770;2024-03-08T01:21:43;2.20;99.90
30764;DHT22;17497;51.476;7.770;2024-03-08T01:24:09;2.20;99.90
30764;DHT22;17497;51.476;7.770;2024-03-08T01:26:36;2.20;99.90
30764;DHT22;17497;51.476;7.770;2024-03-08T01:29:03;2.20;99.90
30764;DHT22;17497;51.476;7.770;2024-03-08T01:31:30;2.20;99.90
30764;DHT22;17497;51.476;7.770;2024-03-08T01:33:57;2.20;99.90
30764;DHT22;17497;51.476;7.770;2024-03-08T01:36:23;2.10;99.90
30764;DHT22;17497;51.476;7.770;2024-03-08T01:38:51;2.10;99.90
30764;DHT22;17497;51.476;7.770;2024-03-08T01:41:18;2.10;99.90
30764;DHT22;17497;51.476;7.770;2024-03-08T01:43:45;2.10;99.90
30764;DHT22;17497;51.476;7.770;2024-03-08T01:46:12;2.10;99.90
30764;DHT22;17497;51.476;7.770;2024-03-08T01:48:41;2.10;99.90
30764;DHT22;17497;51.476;7.770;2024-03-08T01:51:08;2.10;99.90
30764;DHT22;17497;51.476;7.770;2024-03-08T01:53:35;2.00;99.90
30764;DHT22;17497;51.476;7.770;2024-03-08T01:56:02;2.00;99.90
30764;DHT22;17497;51.476;7.770;2024-03-08T01:58:29;2.00;99.90
30764;DHT22;17497;51.476;7.770;2024-03-08T02:00:56;1.90;99.90
30764;DHT22;17497;51.476;7.770;2024-03-08T02:03:23;1.90;99.90
30764;DHT22;17497;51.476;7.770;2024-03-08T02:05:50;1.90;99.90
30764;DHT22;17497;51.476;7.770;2024-03-08T02:08:18;1.80;99.90
30764;DHT22;17497;51.476;7.770;2024-03-08T02:10:45;1.80;99.90
30764;DHT22;17497;51.476;7.770;2024-03-08T02:13:12;1.80;99.90
30764;DHT22;17497;51.476;7.770;2024-03-08T02:15:54;1.80;99.90
30764;DHT22;17497;51.476;7.770;2024-03-08T02:18:22;1.70;99.90
30764;DHT22;17497;51.476;7.770;2024-03-08T02:20:49;1.70;99.90
30764;DHT22;17497;51.476;7.770;2024-03-08T02:23:16;1.70;99.90
30764;DHT22;17497;51.476;7.770;2024-03-08T02:25:43;1.70;99.90
30764;DHT22;17497;51.476;7.770;2024-03-08T02:28:10;1.70;99.90
30764;DHT22;17497;51.476;7.770;2024-03-08T02:30:37;1.70;99.90
30764;DHT22;17497;51.476;7.770;2024-03-08T02:33:05;1.70;99.90
30764;DHT22;17497;51.476;7.770;2024-03-08T02:35:32;1.70;99.90
30764;DHT22;17497;51.476;7.770;2024-03-08T02:37:59;1.70;99.90
30764;DHT22;17497;51.476;7.770;2024-03-08T02:40:26;1.70;99.90
30764;DHT22;17497;51.476;7.770;2024-03-08T02:42:52;1.60;99.90
30764;DHT22;17497;51.476;7.770;2024-03-08T02:45:19;1.60;99.90
30764;DHT22;17497;51.476;7.770;2024-03-08T02:47:47;1.60;99.90
30764;DHT22;17497;51.476;7.770;2024-03-08T02:50:16;1.60;99.90
30764;DHT22;17497;51.476;7.770;2024-03-08T02:52:42;1.60;99.90
30764;DHT22;17497;51.476;7.770;2024-03-08T02:55:09;1.60;99.90
30764;DHT22;17497;51.476;7.770;2024-03-08T02:57:39;1.60;99.90
30764;DHT22;17497;51.476;7.770;2024-03-08T03:00:06;1.60;99.90
30764;DHT22;17497;51.476;7.770;2024-03-08T03:02:36;1.70;99.90
30764;DHT22;17497;51.476;7.770;2024-03-08T03:05:04;1.60;99.90
30764;DHT22;17497;51.476;7.770;2024-03-08T03:07:36;1.60;99.90
30764;DHT22;17497;51.476;7.770;2024-03-08T03:10:04;1.60;99.90
30764;DHT22;17497;51.476;7.770;2024-03-08T03:12:31;1.60;99.90
30764;DHT22;17497;51.476;7.770;2024-03-08T03:14:58;1.60;99.90
30764;DHT22;17497;51.476;7.770;2024-03-08T03:17:25;1.60;99.90
30764;DHT22;17497;51.476;7.770;2024-03-08T03:19:52;1.60;99.90
30764;DHT22;17497;51.476;7.770;2024-03-08T03:22:19;1.60;99.90
30764;DHT22;17497;51.476;7.770;2024-03-08T03:24:46;1.60;99.90
30764;DHT22;17497;51.476;7.770;2024-03-08T03:27:13;1.70;99.90
30764;DHT22;17497;51.476;7.770;2024-03-08T03:29:41;1.70;99.90
30764;DHT22;17497;51.476;7.770;2024-03-08T03:32:12;1.70;99.90
30764;DHT22;17497;51.476;7.770;2024-03-08T03:34:39;1.70;99.90
30764;DHT22;17497;51.476;7.770;2024-03-08T03:37:06;1.70;99.90
30764;DHT22;17497;51.476;7.770;2024-03-08T03:39:35;1.70;99.90
30764;DHT22;17497;51.476;7.770;2024-03-08T03:42:07;1.80;99.90
30764;DHT22;17497;51.476;7.770;2024-03-08T03:44:33;1.80;99.90
30764;DHT22;17497;51.476;7.770;2024-03-08T03:47:00;1.70;99.90
30764;DHT22;17497;51.476;7.770;2024-03-08T03:49:27;1.70;99.90
30764;DHT22;17497;51.476;7.770;2024-03-08T03:51:55;1.70;99.90
30764;DHT22;17497;51.476;7.770;2024-03-08T03:54:22;1.70;99.90
30764;DHT22;17497;51.476;7.770;2024-03-08T03:56:49;1.70;99.90
30764;DHT22;17497;51.476;7.770;2024-03-08T03:59:19;1.70;99.90
30764;DHT22;17497;51.476;7.770;2024-03-08T04:01:45;1.60;99.90
30764;DHT22;17497;51.476;7.770;2024-03-08T04:04:12;1.60;99.90
30764;DHT22;17497;51.476;7.770;2024-03-08T04:06:39;1.60;99.90
30764;DHT22;17497;51.476;7.770;2024-03-08T04:09:06;1.60;99.90
30764;DHT22;17497;51.476;7.770;2024-03-08T04:11:33;1.60;99.90
30764;DHT22;17497;51.476;7.770;2024-03-08T04:14:00;1.60;99.90
30764;DHT22;17497;51.476;7.770;2024-03-08T04:16:26;1.50;99.90
30764;DHT22;17497;51.476;7.770;2024-03-08T04:18:53;1.50;99.90
30764;DHT22;17497;51.476;7.770;2024-03-08T04:21:20;1.50;99.90
30764;DHT22;17497;51.476;7.770;2024-03-08T04:23:46;1.50;99.90
30764;DHT22;17497;51.476;7.770;2024-03-08T04:26:13;1.50;99.90
30764;DHT22;17497;51.476;7.770;2024-03-08T04:28:42;1.50;99.90
30764;DHT22;17497;51.476;7.770;2024-03-08T04:31:08;1.50;99.90
30764;DHT22;17497;51.476;7.770;2024-03-08T04:33:35;1.50;99.90
30764;DHT22;17497;51.476;7.770;2024-03-08T04:36:05;1.60;99.90
30764;DHT22;17497;51.476;7.770;2024-03-08T04:38:32;1.50;99.90
30764;DHT22;17497;51.476;7.770;2024-03-08T04:40:59;1.50;99.90
30764;DHT22;17497;51.476;7.770;2024-03-08T04:43:28;1.40;99.90
30764;DHT22;17497;51.476;7.770;2024-03-08T04:45:56;1.40;99.90
30764;DHT22;17497;51.476;7.770;2024-03-08T04:48:23;1.40;99.90
30764;DHT22;17497;51.476;7.770;2024-03-08T04:50:49;1.40;99.90
30764;DHT22;17497;51.476;7.770;2024-03-08T04:53:17;1.40;99.90
30764;DHT22;17497;51.476;7.770;2024-03-08T04:55:44;1.40;99.90
30764;DHT22;17497;51.476;7.770;2024-03-08T04:58:10;1.30;99.90
30764;DHT22;17497;51.476;7.770;2024-03-08T05:00:37;1.40;99.90
30764;DHT22;17497;51.476;7.770;2024-03-08T05:03:04;1.40;99.90
30764;DHT22;17497;51.476;7.770;2024-03-08T05:05:31;1.30;99.90
30764;DHT22;17497;51.476;7.770;2024-03-08T05:07:59;1.30;99.90
30764;DHT22;17497;51.476;7.770;2024-03-08T05:10:27;1.30;99.90
30764;DHT22;17497;51.476;7.770;2024-03-08T05:12:54;1.30;99.90
30764;DHT22;17497;51.476;7.770;2024-03-08T05:15:23;1.20;99.90
30764;DHT22;17497;51.476;7.770;2024-03-08T05:17:50;1.20;99.90
30764;DHT22;17497;51.476;7.770;2024-03-08T05:20:16;1.20;99.90
30764;DHT22;17497;51.476;7.770;2024-03-08T05:22:44;1.20;99.90
30764;DHT22;17497;51.476;7.770;2024-03-08T05:25:11;1.20;99.90
30764;DHT22;17497;51.476;7.770;2024-03-08T05:27:38;1.10;99.90
30764;DHT22;17497;51.476;7.770;2024-03-08T05:30:05;1.10;99.90
30764;DHT22;17497;51.476;7.770;2024-03-08T05:32:32;1.10;99.90
30764;DHT22;17497;51.476;7.770;2024-03-08T05:34:59;1.10;99.90
30764;DHT22;17497;51.476;7.770;2024-03-08T05:37:26;1.10;99.90
30764;DHT22;17497;51.476;7.770;2024-03-08T05:39:52;1.10;99.90
30764;DHT22;17497;51.476;7.770;2024-03-08T05:42:20;1.10;99.90
30764;DHT22;17497;51.476;7.770;2024-03-08T05:44:47;1.10;99.90
30764;DHT22;17497;51.476;7.770;2024-03-08T05:47:14;1.10;99.90
30764;DHT22;17497;51.476;7.770;2024-03-08T05:49:42;1.10;99.90
30764;DHT22;17497;51.476;7.770;2024-03-08T05:52:11;1.10;99.90
30764;DHT22;17497;51.476;7.770;2024-03-08T05:54:37;1.10;99.90
30764;DHT22;17497;51.476;7.770;2024-03-08T05:57:04;1.10;99.90
30764;DHT22;17497;51.476;7.770;2024-03-08T05:59:31;1.20;99.90
30764;DHT22;17497;51.476;7.770;2024-03-08T06:01:57;1.10;99.90
30764;DHT22;17497;51.476;7.770;2024-03-08T06:04:24;1.20;99.90
30764;DHT22;17497;51.476;7.770;2024-03-08T06:06:51;1.20;99.90
30764;DHT22;17497;51.476;7.770;2024-03-08T06:09:19;1.30;99.90
30764;DHT22;17497;51.476;7.770;2024-03-08T06:11:49;1.30;99.90
30764;DHT22;17497;51.476;7.770;2024-03-08T06:14:16;1.40;99.90
30764;DHT22;17497;51.476;7.770;2024-03-08T06:16:46;1.40;99.90
30764;DHT22;17497;51.476;7.770;2024-03-08T06:19:13;1.40;99.90
30764;DHT22;17497;51.476;7.770;2024-03-08T06:21:39;1.40;99.90
30764;DHT22;17497;51.476;7.770;2024-03-08T06:24:07;1.50;99.90
30764;DHT22;17497;51.476;7.770;2024-03-08T06:26:34;1.50;99.90
30764;DHT22;17497;51.476;7.770;2024-03-08T06:29:03;1.50;99.90
30764;DHT22;17497;51.476;7.770;2024-03-08T06:31:33;1.50;99.90
30764;DHT22;17497;51.476;7.770;2024-03-08T06:34:00;1.60;99.90
30764;DHT22;17497;51.476;7.770;2024-03-08T06:36:27;1.60;99.90
30764;DHT22;17497;51.476;7.770;2024-03-08T06:38:54;1.70;99.90
30764;DHT22;17497;51.476;7.770;2024-03-08T06:41:21;1.70;99.90
30764;DHT22;17497;51.476;7.770;2024-03-08T06:43:48;1.70;99.90
30764;DHT22;17497;51.476;7.770;2024-03-08T06:46:15;1.70;99.90
30764;DHT22;17497;51.476;7.770;2024-03-08T06:48:42;1.80;99.90
30764;DHT22;17497;51.476;7.770;2024-03-08T06:51:09;1.80;99.90
30764;DHT22;17497;51.476;7.770;2024-03-08T06:53:37;1.80;99.90
30764;DHT22;17497;51.476;7.770;2024-03-08T06:56:05;1.90;99.90
30764;DHT22;17497;51.476;7.770;2024-03-08T06:58:32;2.00;99.90
30764;DHT22;17497;51.476;7.770;2024-03-08T07:00:59;2.00;99.90
30764;DHT22;17497;51.476;7.770;2024-03-08T07:03:27;2.10;99.90
30764;DHT22;17497;51.476;7.770;2024-03-08T07:05:56;2.10;99.90
30764;DHT22;17497;51.476;7.770;2024-03-08T07:08:25;2.20;99.90
30764;DHT22;17497;51.476;7.770;2024-03-08T07:10:54;2.20;99.90
30764;DHT22;17497;51.476;7.770;2024-03-08T07:13:20;2.30;99.90
30764;DHT22;17497;51.476;7.770;2024-03-08T07:15:47;2.40;99.90
30764;DHT22;17497;51.476;7.770;2024-03-08T07:18:14;2.40;99.90
30764;DHT22;17497;51.476;7.770;2024-03-08T07:20:41;2.40;99.90
30764;DHT22;17497;51.476;7.770;2024-03-08T07:23:09;2.50;99.90
30764;DHT22;17497;51.476;7.770;2024-03-08T07:25:37;2.60;99.90
30764;DHT22;17497;51.476;7.770;2024-03-08T07:28:05;2.60;99.90
30764;DHT22;17497;51.476;7.770;2024-03-08T07:30:36;2.70;99.90
30764;DHT22;17497;51.476;7.770;2024-03-08T07:33:12;2.70;99.90
30764;DHT22;17497;51.476;7.770;2024-03-08T07:35:39;2.70;99.90
30764;DHT22;17497;51.476;7.770;2024-03-08T07:38:07;2.80;99.90
30764;DHT22;17497;51.476;7.770;2024-03-08T07:40:36;2.80;99.90
30764;DHT22;17497;51.476;7.770;2024-03-08T07:43:04;2.90;99.90
30764;DHT22;17497;51.476;7.770;2024-03-08T07:45:31;2.90;99.90
30764;DHT22;17497;51.476;7.770;2024-03-08T07:47:57;3.00;99.90
30764;DHT22;17497;51.476;7.770;2024-03-08T07:50:24;3.00;99.90
30764;DHT22;17497;51.476;7.770;2024-03-08T07:52:51;3.00;99.90
30764;DHT22;17497;51.476;7.770;2024-03-08T07:55:18;3.00;99.90
30764;DHT22;17497;51.476;7.770;2024-03-08T07:57:45;3.10;99.90
30764;DHT22;17497;51.476;7.770;2024-03-08T08:00:14;3.20;99.90
30764;DHT22;17497;51.476;7.770;2024-03-08T08:02:44;3.20;99.90
30764;DHT22;17497;51.476;7.770;2024-03-08T08:05:12;3.20;99.90
30764;DHT22;17497;51.476;7.770;2024-03-08T08:07:39;3.20;99.90
30764;DHT22;17497;51.476;7.770;2024-03-08T08:10:10;3.20;99.90
30764;DHT22;17497;51.476;7.770;2024-03-08T08:12:44;3.30;99.90
30764;DHT22;17497;51.476;7.770;2024-03-08T08:15:12;3.30;99.90
30764;DHT22;17497;51.476;7.770;2024-03-08T08:17:39;3.40;99.90
30764;DHT22;17497;51.476;7.770;2024-03-08T08:20:05;3.40;99.90
30764;DHT22;17497;51.476;7.770;2024-03-08T08:22:32;3.40;99.90
30764;DHT22;17497;51.476;7.770;2024-03-08T08:24:59;3.40;99.90
30764;DHT22;17497;51.476;7.770;2024-03-08T08:27:25;3.50;99.90
30764;DHT22;17497;51.476;7.770;2024-03-08T08:29:52;3.60;99.90
30764;DHT22;17497;51.476;7.770;2024-03-08T08:32:19;3.60;99.90
30764;DHT22;17497;51.476;7.770;2024-03-08T08:34:46;3.80;99.90
30764;DHT22;17497;51.476;7.770;2024-03-08T08:37:13;3.90;99.90
30764;DHT22;17497;51.476;7.770;2024-03-08T08:39:39;4.00;99.90
30764;DHT22;17497;51.476;7.770;2024-03-08T08:42:06;4.00;99.90
30764;DHT22;17497;51.476;7.770;2024-03-08T08:44:35;4.10;99.90
30764;DHT22;17497;51.476;7.770;2024-03-08T08:47:02;4.10;99.90
30764;DHT22;17497;51.476;7.770;2024-03-08T08:49:35;4.20;99.90
30764;DHT22;17497;51.476;7.770;2024-03-08T08:52:02;4.30;99.90
30764;DHT22;17497;51.476;7.770;2024-03-08T08:54:37;4.40;99.90
30764;DHT22;17497;51.476;7.770;2024-03-08T08:57:03;4.40;99.90
30764;DHT22;17497;51.476;7.770;2024-03-08T08:59:34;4.50;99.90
30764;DHT22;17497;51.476;7.770;2024-03-08T09:02:02;4.50;99.90
30764;DHT22;17497;51.476;7.770;2024-03-08T09:04:30;4.50;99.90
30764;DHT22;17497;51.476;7.770;2024-03-08T09:07:00;4.60;99.90
30764;DHT22;17497;51.476;7.770;2024-03-08T09:09:27;4.60;99.90
30764;DHT22;17497;51.476;7.770;2024-03-08T09:11:54;4.60;99.90
30764;DHT22;17497;51.476;7.770;2024-03-08T09:14:20;4.70;99.90
30764;DHT22;17497;51.476;7.770;2024-03-08T09:16:47;4.80;99.90
30764;DHT22;17497;51.476;7.770;2024-03-08T09:19:14;4.90;99.90
30764;DHT22;17497;51.476;7.770;2024-03-08T09:21:41;5.00;99.90
30764;DHT22;17497;51.476;7.770;2024-03-08T09:24:08;5.00;99.90
30764;DHT22;17497;51.476;7.770;2024-03-08T09:26:34;5.10;99.90
30764;DHT22;17497;51.476;7.770;2024-03-08T09:29:01;5.20;99.90
30764;DHT22;17497;51.476;7.770;2024-03-08T09:31:28;5.20;99.90
30764;DHT22;17497;51.476;7.770;2024-03-08T09:33:54;5.20;99.90
30764;DHT22;17497;51.476;7.770;2024-03-08T09:36:21;5.20;99.90
30764;DHT22;17497;51.476;7.770;2024-03-08T09:38:47;5.20;99.90
30764;DHT22;17497;51.476;7.770;2024-03-08T09:41:16;5.20;99.90
30764;DHT22;17497;51.476;7.770;2024-03-08T09:43:44;5.20;99.90
30764;DHT22;17497;51.476;7.770;2024-03-08T09:46:11;5.20;99.90
30764;DHT22;17497;51.476;7.770;2024-03-08T09:48:40;5.30;99.90
30764;DHT22;17497;51.476;7.770;2024-03-08T09:51:08;5.40;99.90
30764;DHT22;17497;51.476;7.770;2024-03-08T09:53:34;5.50;99.90
30764;DHT22;17497;51.476;7.770;2024-03-08T09:56:01;5.60;99.90
30764;DHT22;17497;51.476;7.770;2024-03-08T09:58:30;5.70;99.90
30764;DHT22;17497;51.476;7.770;2024-03-08T10:00:59;5.80;99.90
30764;DHT22;17497;51.476;7.770;2024-03-08T10:03:31;6.00;99.90
30764;DHT22;17497;51.476;7.770;2024-03-08T10:06:01;6.20;99.90
30764;DHT22;17497;51.476;7.770;2024-03-08T10:08:28;6.40;99.90
30764;DHT22;17497;51.476;7.770;2024-03-08T10:10:57;6.50;99.90
30764;DHT22;17497;51.476;7.770;2024-03-08T10:13:28;6.80;99.90
30764;DHT22;17497;51.476;7.770;2024-03-08T10:15:55;7.00;99.90
30764;DHT22;17497;51.476;7.770;2024-03-08T10:18:22;7.20;99.90
30764;DHT22;17497;51.476;7.770;2024-03-08T10:21:07;7.30;99.90
30764;DHT22;17497;51.476;7.770;2024-03-08T10:23:36;7.60;99.90
30764;DHT22;17497;51.476;7.770;2024-03-08T10:26:15;7.80;99.90
30764;DHT22;17497;51.476;7.770;2024-03-08T10:29:21;8.00;99.90
30764;DHT22;17497;51.476;7.770;2024-03-08T10:31:48;8.40;99.90
30764;DHT22;17497;51.476;7.770;2024-03-08T10:34:20;8.80;99.90
30764;DHT22;17497;51.476;7.770;2024-03-08T10:36:50;9.20;99.90
30764;DHT22;17497;51.476;7.770;2024-03-08T10:39:24;9.70;99.90
30764;DHT22;17497;51.476;7.770;2024-03-08T10:41:58;9.90;99.90
30764;DHT22;17497;51.476;7.770;2024-03-08T10:47:00;10.90;99.90
30764;DHT22;17497;51.476;7.770;2024-03-08T10:49:31;11.30;99.90
30764;DHT22;17497;51.476;7.770;2024-03-08T10:52:04;11.60;99.90
30764;DHT22;17497;51.476;7.770;2024-03-08T10:54:36;11.90;99.90
30764;DHT22;17497;51.476;7.770;2024-03-08T10:57:09;12.30;99.90
30764;DHT22;17497;51.476;7.770;2024-03-08T10:59:39;12.30;99.90
30764;DHT22;17497;51.476;7.770;2024-03-08T11:02:05;12.90;99.90
30764;DHT22;17497;51.476;7.770;2024-03-08T11:04:33;13.40;99.90
30764;DHT22;17497;51.476;7.770;2024-03-08T11:07:00;13.80;98.30
30764;DHT22;17497;51.476;7.770;2024-03-08T11:09:30;14.30;97.40
30764;DHT22;17497;51.476;7.770;2024-03-08T11:12:18;14.70;96.00
30764;DHT22;17497;51.476;7.770;2024-03-08T11:14:44;15.00;93.30
30764;DHT22;17497;51.476;7.770;2024-03-08T11:17:13;14.90;93.70
30764;DHT22;17497;51.476;7.770;2024-03-08T11:19:46;15.30;90.00
30764;DHT22;17497;51.476;7.770;2024-03-08T11:22:22;15.80;83.60
30764;DHT22;17497;51.476;7.770;2024-03-08T11:24:50;16.00;79.00
30764;DHT22;17497;51.476;7.770;2024-03-08T11:27:17;16.20;77.30
30764;DHT22;17497;51.476;7.770;2024-03-08T11:29:43;16.50;77.80
30764;DHT22;17497;51.476;7.770;2024-03-08T11:32:11;17.10;79.20
30764;DHT22;17497;51.476;7.770;2024-03-08T11:34:39;17.50;64.60
30764;DHT22;17497;51.476;7.770;2024-03-08T11:37:13;17.80;64.50
30764;DHT22;17497;51.476;7.770;2024-03-08T11:39:47;17.70;64.30
30764;DHT22;17497;51.476;7.770;2024-03-08T11:42:17;18.00;65.30
30764;DHT22;17497;51.476;7.770;2024-03-08T11:44:47;18.40;63.00
30764;DHT22;17497;51.476;7.770;2024-03-08T11:47:14;18.60;55.50
30764;DHT22;17497;51.476;7.770;2024-03-08T11:49:41;19.00;52.80
30764;DHT22;17497;51.476;7.770;2024-03-08T11:52:11;19.20;55.10
30764;DHT22;17497;51.476;7.770;2024-03-08T11:54:42;18.80;54.40
30764;DHT22;17497;51.476;7.770;2024-03-08T11:57:10;18.80;52.90
30764;DHT22;17497;51.476;7.770;2024-03-08T11:59:37;19.30;49.90
30764;DHT22;17497;51.476;7.770;2024-03-08T12:02:04;19.70;47.00
30764;DHT22;17497;51.476;7.770;2024-03-08T12:04:31;19.90;46.20
30764;DHT22;17497;51.476;7.770;2024-03-08T12:07:02;19.40;48.60
30764;DHT22;17497;51.476;7.770;2024-03-08T12:09:29;19.90;49.60
30764;DHT22;17497;51.476;7.770;2024-03-08T12:11:55;20.20;45.90
30764;DHT22;17497;51.476;7.770;2024-03-08T12:14:22;20.20;45.30
30764;DHT22;17497;51.476;7.770;2024-03-08T12:16:50;20.60;43.40
30764;DHT22;17497;51.476;7.770;2024-03-08T12:19:16;20.80;39.80
30764;DHT22;17497;51.476;7.770;2024-03-08T12:21:43;21.00;41.50
30764;DHT22;17497;51.476;7.770;2024-03-08T12:24:15;21.00;40.50
30764;DHT22;17497;51.476;7.770;2024-03-08T12:26:43;20.90;40.60
30764;DHT22;17497;51.476;7.770;2024-03-08T12:29:16;20.30;1.00
30764;DHT22;17497;51.476;7.770;2024-03-08T12:31:45;20.40;1.00
30764;DHT22;17497;51.476;7.770;2024-03-08T12:34:12;20.80;1.00
30764;DHT22;17497;51.476;7.770;2024-03-08T12:36:47;21.20;1.00
30764;DHT22;17497;51.476;7.770;2024-03-08T12:39:20;21.10;1.00
30764;DHT22;17497;51.476;7.770;2024-03-08T12:41:54;20.80;1.00
30764;DHT22;17497;51.476;7.770;2024-03-08T12:44:21;21.10;1.00
30764;DHT22;17497;51.476;7.770;2024-03-08T12:46:51;20.80;1.00
30764;DHT22;17497;51.476;7.770;2024-03-08T12:49:20;20.80;1.00
30764;DHT22;17497;51.476;7.770;2024-03-08T12:51:48;20.50;1.00
30764;DHT22;17497;51.476;7.770;2024-03-08T12:54:15;20.40;1.00
30764;DHT22;17497;51.476;7.770;2024-03-08T12:56:42;20.50;1.00
30764;DHT22;17497;51.476;7.770;2024-03-08T12:59:08;20.50;1.00
30764;DHT22;17497;51.476;7.770;2024-03-08T13:01:36;20.30;1.00
30764;DHT22;17497;51.476;7.770;2024-03-08T13:04:06;20.30;1.00
30764;DHT22;17497;51.476;7.770;2024-03-08T13:06:34;20.50;1.00
30764;DHT22;17497;51.476;7.770;2024-03-08T13:09:01;21.00;1.00
30764;DHT22;17497;51.476;7.770;2024-03-08T13:11:32;20.60;1.00
30764;DHT22;17497;51.476;7.770;2024-03-08T13:14:03;20.90;99.90
30764;DHT22;17497;51.476;7.770;2024-03-08T13:16:30;21.20;99.90
30764;DHT22;17497;51.476;7.770;2024-03-08T13:18:57;21.30;99.90
30764;DHT22;17497;51.476;7.770;2024-03-08T13:21:24;21.10;99.90
30764;DHT22;17497;51.476;7.770;2024-03-08T13:23:50;21.20;99.90
30764;DHT22;17497;51.476;7.770;2024-03-08T13:26:19;21.30;99.90
30764;DHT22;17497;51.476;7.770;2024-03-08T13:28:46;21.10;99.90
30764;DHT22;17497;51.476;7.770;2024-03-08T13:31:15;21.20;99.90
30764;DHT22;17497;51.476;7.770;2024-03-08T13:33:41;21.00;99.90
30764;DHT22;17497;51.476;7.770;2024-03-08T13:36:08;21.10;99.90
30764;DHT22;17497;51.476;7.770;2024-03-08T13:38:42;21.60;99.90
30764;DHT22;17497;51.476;7.770;2024-03-08T13:41:10;22.00;99.90
30764;DHT22;17497;51.476;7.770;2024-03-08T13:43:37;21.70;99.90
30764;DHT22;17497;51.476;7.770;2024-03-08T13:46:04;21.10;99.90
30764;DHT22;17497;51.476;7.770;2024-03-08T13:48:32;20.20;99.90
30764;DHT22;17497;51.476;7.770;2024-03-08T13:50:58;20.40;99.90
30764;DHT22;17497;51.476;7.770;2024-03-08T13:53:26;20.80;99.90
30764;DHT22;17497;51.476;7.770;2024-03-08T13:55:53;21.10;99.90
30764;DHT22;17497;51.476;7.770;2024-03-08T13:58:20;21.00;99.90
30764;DHT22;17497;51.476;7.770;2024-03-08T14:00:47;21.00;99.90
30764;DHT22;17497;51.476;7.770;2024-03-08T14:03:14;21.10;99.90
30764;DHT22;17497;51.476;7.770;2024-03-08T14:05:41;21.30;99.90
30764;DHT22;17497;51.476;7.770;2024-03-08T14:08:09;21.80;99.90
30764;DHT22;17497;51.476;7.770;2024-03-08T14:10:35;22.30;99.90
30764;DHT22;17497;51.476;7.770;2024-03-08T14:13:04;22.20;99.90
30764;DHT22;17497;51.476;7.770;2024-03-08T14:15:34;21.60;99.90
30764;DHT22;17497;51.476;7.770;2024-03-08T14:18:01;21.70;99.90
30764;DHT22;17497;51.476;7.770;2024-03-08T14:20:28;21.50;99.90
30764;DHT22;17497;51.476;7.770;2024-03-08T14:22:55;21.30;99.90
30764;DHT22;17497;51.476;7.770;2024-03-08T14:25:23;21.60;99.90
30764;DHT22;17497;51.476;7.770;2024-03-08T14:27:53;21.40;99.90
30764;DHT22;17497;51.476;7.770;2024-03-08T14:30:20;21.80;99.90
30764;DHT22;17497;51.476;7.770;2024-03-08T14:33:01;22.20;99.90
30764;DHT22;17497;51.476;7.770;2024-03-08T14:35:28;22.70;99.90
30764;DHT22;17497;51.476;7.770;2024-03-08T14:37:56;22.50;99.90
30764;DHT22;17497;51.476;7.770;2024-03-08T14:40:24;21.70;99.90
30764;DHT22;17497;51.476;7.770;2024-03-08T14:42:52;22.00;99.90
30764;DHT22;17497;51.476;7.770;2024-03-08T14:45:19;21.90;99.90
30764;DHT22;17497;51.476;7.770;2024-03-08T14:47:46;21.10;99.90
30764;DHT22;17497;51.476;7.770;2024-03-08T14:50:19;21.10;99.90
30764;DHT22;17497;51.476;7.770;2024-03-08T14:52:46;21.40;99.90
30764;DHT22;17497;51.476;7.770;2024-03-08T14:55:16;21.60;99.90
30764;DHT22;17497;51.476;7.770;2024-03-08T14:57:42;22.10;99.90
30764;DHT22;17497;51.476;7.770;2024-03-08T15:00:12;22.20;99.90
30764;DHT22;17497;51.476;7.770;2024-03-08T15:02:43;21.90;99.90
30764;DHT22;17497;51.476;7.770;2024-03-08T15:05:10;21.30;99.90
30764;DHT22;17497;51.476;7.770;2024-03-08T15:07:40;20.90;99.90
30764;DHT22;17497;51.476;7.770;2024-03-08T15:10:08;20.90;99.90
30764;DHT22;17497;51.476;7.770;2024-03-08T15:12:40;20.80;99.90
30764;DHT22;17497;51.476;7.770;2024-03-08T15:15:08;20.50;99.90
30764;DHT22;17497;51.476;7.770;2024-03-08T15:17:35;20.40;99.90
30764;DHT22;17497;51.476;7.770;2024-03-08T15:20:03;20.40;99.90
30764;DHT22;17497;51.476;7.770;2024-03-08T15:22:30;20.40;99.90
30764;DHT22;17497;51.476;7.770;2024-03-08T15:24:57;20.00;99.90
30764;DHT22;17497;51.476;7.770;2024-03-08T15:27:24;20.10;99.90
30764;DHT22;17497;51.476;7.770;2024-03-08T15:29:51;20.20;99.90
30764;DHT22;17497;51.476;7.770;2024-03-08T15:32:22;20.40;99.90
30764;DHT22;17497;51.476;7.770;2024-03-08T15:34:49;20.60;99.90
30764;DHT22;17497;51.476;7.770;2024-03-08T15:37:16;21.00;99.90
30764;DHT22;17497;51.476;7.770;2024-03-08T15:39:43;21.00;99.90
30764;DHT22;17497;51.476;7.770;2024-03-08T15:42:10;20.20;99.90
30764;DHT22;17497;51.476;7.770;2024-03-08T15:44:37;19.50;99.90
30764;DHT22;17497;51.476;7.770;2024-03-08T15:47:05;19.60;99.90
30764;DHT22;17497;51.476;7.770;2024-03-08T15:49:33;19.80;99.90